sensor_id;sensor_type;location;lat;lon;timestamp;P1;durP1;ratioP1;P2;durP2;ratioP2
26742;SDS011;14341;51.256;22.478;2022-10-31T00:02:34;68.15;;;40.83;;
26742;SDS011;14341;51.256;22.478;2022-10-31T00:05:41;62.38;;;37.58;;
26742;SDS011;14341;51.256;22.478;2022-10-31T00:08:45;62.30;;;38.85;;
26742;SDS011;14341;51.256;22.478;2022-10-31T00:11:48;71.18;;;44.15;;
26742;SDS011;14341;51.256;22.478;2022-10-31T00:14:51;74.95;;;44.38;;
26742;SDS011;14341;51.256;22.478;2022-10-31T00:17:54;77.45;;;43.65;;
26742;SDS011;14341;51.256;22.478;2022-10-31T00:21:00;69.22;;;42.13;;
26742;SDS011;14341;51.256;22.478;2022-10-31T00:24:05;66.30;;;40.20;;
26742;SDS011;14341;51.256;22.478;2022-10-31T00:27:08;64.10;;;40.20;;
26742;SDS011;14341;51.256;22.478;2022-10-31T00:30:12;72.03;;;41.13;;
26742;SDS011;14341;51.256;22.478;2022-10-31T00:33:15;74.57;;;43.47;;
26742;SDS011;14341;51.256;22.478;2022-10-31T00:36:20;75.03;;;45.05;;
26742;SDS011;14341;51.256;22.478;2022-10-31T00:39:23;63.90;;;41.13;;
26742;SDS011;14341;51.256;22.478;2022-10-31T00:42:27;64.47;;;40.50;;
26742;SDS011;14341;51.256;22.478;2022-10-31T00:45:31;63.05;;;41.13;;
26742;SDS011;14341;51.256;22.478;2022-10-31T00:48:35;65.28;;;41.90;;
26742;SDS011;14341;51.256;22.478;2022-10-31T00:51:40;66.55;;;41.15;;
26742;SDS011;14341;51.256;22.478;2022-10-31T00:54:43;59.88;;;37.40;;
26742;SDS011;14341;51.256;22.478;2022-10-31T00:57:47;65.63;;;39.35;;
26742;SDS011;14341;51.256;22.478;2022-10-31T01:00:51;67.65;;;38.88;;
26742;SDS011;14341;51.256;22.478;2022-10-31T01:03:57;63.42;;;39.22;;
26742;SDS011;14341;51.256;22.478;2022-10-31T01:07:01;61.03;;;38.92;;
26742;SDS011;14341;51.256;22.478;2022-10-31T01:10:05;66.22;;;39.72;;
26742;SDS011;14341;51.256;22.478;2022-10-31T01:13:09;70.60;;;40.97;;
26742;SDS011;14341;51.256;22.478;2022-10-31T01:16:13;70.78;;;44.97;;
26742;SDS011;14341;51.256;22.478;2022-10-31T01:19:18;68.10;;;43.92;;
26742;SDS011;14341;51.256;22.478;2022-10-31T01:22:22;71.82;;;42.55;;
26742;SDS011;14341;51.256;22.478;2022-10-31T01:25:26;68.07;;;41.83;;
26742;SDS011;14341;51.256;22.478;2022-10-31T01:28:29;76.00;;;44.50;;
26742;SDS011;14341;51.256;22.478;2022-10-31T01:31:34;74.78;;;46.17;;
26742;SDS011;14341;51.256;22.478;2022-10-31T01:34:38;75.18;;;45.03;;
26742;SDS011;14341;51.256;22.478;2022-10-31T01:37:43;99.15;;;47.85;;
26742;SDS011;14341;51.256;22.478;2022-10-31T01:40:46;82.65;;;47.15;;
26742;SDS011;14341;51.256;22.478;2022-10-31T01:43:50;86.15;;;46.75;;
26742;SDS011;14341;51.256;22.478;2022-10-31T01:46:56;88.93;;;49.13;;
26742;SDS011;14341;51.256;22.478;2022-10-31T01:50:03;194.90;;;56.03;;
26742;SDS011;14341;51.256;22.478;2022-10-31T01:56:18;100.80;;;53.38;;
26742;SDS011;14341;51.256;22.478;2022-10-31T01:59:21;94.78;;;50.92;;
26742;SDS011;14341;51.256;22.478;2022-10-31T02:02:28;88.93;;;48.40;;
26742;SDS011;14341;51.256;22.478;2022-10-31T02:05:33;87.50;;;47.80;;
26742;SDS011;14341;51.256;22.478;2022-10-31T02:08:38;81.05;;;46.95;;
26742;SDS011;14341;51.256;22.478;2022-10-31T02:11:42;74.40;;;45.92;;
26742;SDS011;14341;51.256;22.478;2022-10-31T02:14:47;79.28;;;48.03;;
26742;SDS011;14341;51.256;22.478;2022-10-31T02:17:51;79.40;;;48.28;;
26742;SDS011;14341;51.256;22.478;2022-10-31T02:20:57;87.97;;;48.42;;
26742;SDS011;14341;51.256;22.478;2022-10-31T02:24:21;79.55;;;47.38;;
26742;SDS011;14341;51.256;22.478;2022-10-31T02:27:58;80.22;;;47.85;;
26742;SDS011;14341;51.256;22.478;2022-10-31T02:31:27;75.35;;;48.95;;
26742;SDS011;14341;51.256;22.478;2022-10-31T02:34:36;78.90;;;48.88;;
26742;SDS011;14341;51.256;22.478;2022-10-31T02:37:48;79.50;;;48.63;;
26742;SDS011;14341;51.256;22.478;2022-10-31T02:44:08;64.22;;;45.10;;
26742;SDS011;14341;51.256;22.478;2022-10-31T02:47:18;69.63;;;47.50;;
26742;SDS011;14341;51.256;22.478;2022-10-31T02:50:26;64.93;;;44.28;;
26742;SDS011;14341;51.256;22.478;2022-10-31T02:53:33;71.95;;;47.78;;
26742;SDS011;14341;51.256;22.478;2022-10-31T02:56:37;70.00;;;45.97;;
26742;SDS011;14341;51.256;22.478;2022-10-31T02:59:43;70.38;;;46.58;;
26742;SDS011;14341;51.256;22.478;2022-10-31T03:02:53;66.25;;;46.05;;
26742;SDS011;14341;51.256;22.478;2022-10-31T03:06:06;62.05;;;42.60;;
26742;SDS011;14341;51.256;22.478;2022-10-31T03:09:17;63.95;;;42.30;;
26742;SDS011;14341;51.256;22.478;2022-10-31T03:12:30;60.75;;;42.85;;
26742;SDS011;14341;51.256;22.478;2022-10-31T03:15:48;63.33;;;44.15;;
26742;SDS011;14341;51.256;22.478;2022-10-31T03:18:55;63.33;;;46.03;;
26742;SDS011;14341;51.256;22.478;2022-10-31T03:22:02;58.63;;;42.30;;
26742;SDS011;14341;51.256;22.478;2022-10-31T03:25:10;60.95;;;42.38;;
26742;SDS011;14341;51.256;22.478;2022-10-31T03:28:16;57.55;;;41.33;;
26742;SDS011;14341;51.256;22.478;2022-10-31T03:31:28;57.85;;;41.67;;
26742;SDS011;14341;51.256;22.478;2022-10-31T03:34:36;66.30;;;40.83;;
26742;SDS011;14341;51.256;22.478;2022-10-31T03:37:42;65.57;;;43.53;;
26742;SDS011;14341;51.256;22.478;2022-10-31T03:40:49;56.08;;;41.00;;
26742;SDS011;14341;51.256;22.478;2022-10-31T03:43:57;60.03;;;40.28;;
26742;SDS011;14341;51.256;22.478;2022-10-31T03:47:04;54.88;;;40.65;;
26742;SDS011;14341;51.256;22.478;2022-10-31T03:50:09;55.80;;;40.30;;
26742;SDS011;14341;51.256;22.478;2022-10-31T03:53:15;51.38;;;38.03;;
26742;SDS011;14341;51.256;22.478;2022-10-31T03:56:25;55.17;;;37.05;;
26742;SDS011;14341;51.256;22.478;2022-10-31T03:59:35;51.70;;;36.65;;
26742;SDS011;14341;51.256;22.478;2022-10-31T04:02:43;52.20;;;37.80;;
26742;SDS011;14341;51.256;22.478;2022-10-31T04:05:52;60.85;;;40.17;;
26742;SDS011;14341;51.256;22.478;2022-10-31T04:08:59;62.67;;;41.03;;
26742;SDS011;14341;51.256;22.478;2022-10-31T04:12:04;58.35;;;41.20;;
26742;SDS011;14341;51.256;22.478;2022-10-31T04:15:28;66.03;;;43.38;;
26742;SDS011;14341;51.256;22.478;2022-10-31T04:18:33;64.68;;;42.00;;
26742;SDS011;14341;51.256;22.478;2022-10-31T04:21:38;64.82;;;41.35;;
26742;SDS011;14341;51.256;22.478;2022-10-31T04:24:44;71.22;;;44.25;;
26742;SDS011;14341;51.256;22.478;2022-10-31T04:27:50;70.32;;;43.08;;
26742;SDS011;14341;51.256;22.478;2022-10-31T04:30:53;78.68;;;43.85;;
26742;SDS011;14341;51.256;22.478;2022-10-31T04:33:57;66.78;;;43.30;;
26742;SDS011;14341;51.256;22.478;2022-10-31T04:37:04;78.57;;;45.40;;
26742;SDS011;14341;51.256;22.478;2022-10-31T04:40:08;64.78;;;42.88;;
26742;SDS011;14341;51.256;22.478;2022-10-31T04:43:12;69.10;;;43.42;;
26742;SDS011;14341;51.256;22.478;2022-10-31T04:46:18;72.07;;;42.92;;
26742;SDS011;14341;51.256;22.478;2022-10-31T04:49:21;66.60;;;39.13;;
26742;SDS011;14341;51.256;22.478;2022-10-31T04:52:26;65.63;;;41.88;;
26742;SDS011;14341;51.256;22.478;2022-10-31T04:55:29;75.78;;;43.97;;
26742;SDS011;14341;51.256;22.478;2022-10-31T04:58:54;64.97;;;41.33;;
26742;SDS011;14341;51.256;22.478;2022-10-31T05:01:59;66.70;;;42.30;;
26742;SDS011;14341;51.256;22.478;2022-10-31T05:05:16;68.43;;;43.92;;
26742;SDS011;14341;51.256;22.478;2022-10-31T05:08:23;72.20;;;43.88;;
26742;SDS011;14341;51.256;22.478;2022-10-31T05:11:27;72.03;;;42.97;;
26742;SDS011;14341;51.256;22.478;2022-10-31T05:14:41;75.13;;;43.78;;
26742;SDS011;14341;51.256;22.478;2022-10-31T05:18:07;68.50;;;41.60;;
26742;SDS011;14341;51.256;22.478;2022-10-31T05:21:49;67.50;;;42.60;;
26742;SDS011;14341;51.256;22.478;2022-10-31T05:24:55;74.15;;;44.75;;
26742;SDS011;14341;51.256;22.478;2022-10-31T05:27:58;71.47;;;43.20;;
26742;SDS011;14341;51.256;22.478;2022-10-31T05:31:02;69.78;;;42.20;;
26742;SDS011;14341;51.256;22.478;2022-10-31T05:34:06;69.72;;;42.13;;
26742;SDS011;14341;51.256;22.478;2022-10-31T05:37:29;65.20;;;41.28;;
26742;SDS011;14341;51.256;22.478;2022-10-31T05:40:35;68.70;;;42.58;;
26742;SDS011;14341;51.256;22.478;2022-10-31T05:43:39;68.70;;;44.38;;
26742;SDS011;14341;51.256;22.478;2022-10-31T05:46:43;68.65;;;41.22;;
26742;SDS011;14341;51.256;22.478;2022-10-31T05:50:08;66.68;;;39.50;;
26742;SDS011;14341;51.256;22.478;2022-10-31T05:53:20;64.45;;;41.72;;
26742;SDS011;14341;51.256;22.478;2022-10-31T05:56:24;65.47;;;41.90;;
26742;SDS011;14341;51.256;22.478;2022-10-31T05:59:28;70.03;;;42.78;;
26742;SDS011;14341;51.256;22.478;2022-10-31T06:02:32;62.15;;;39.83;;
26742;SDS011;14341;51.256;22.478;2022-10-31T06:05:54;60.55;;;41.38;;
26742;SDS011;14341;51.256;22.478;2022-10-31T06:09:02;62.78;;;40.10;;
26742;SDS011;14341;51.256;22.478;2022-10-31T06:12:10;63.35;;;39.08;;
26742;SDS011;14341;51.256;22.478;2022-10-31T06:15:31;62.33;;;40.45;;
26742;SDS011;14341;51.256;22.478;2022-10-31T06:18:35;55.00;;;37.35;;
26742;SDS011;14341;51.256;22.478;2022-10-31T06:21:38;54.75;;;35.53;;
26742;SDS011;14341;51.256;22.478;2022-10-31T06:24:41;54.80;;;36.58;;
26742;SDS011;14341;51.256;22.478;2022-10-31T06:28:05;53.83;;;33.38;;
26742;SDS011;14341;51.256;22.478;2022-10-31T06:31:19;56.42;;;36.28;;
26742;SDS011;14341;51.256;22.478;2022-10-31T06:34:22;77.25;;;39.05;;
26742;SDS011;14341;51.256;22.478;2022-10-31T06:37:26;73.13;;;38.53;;
26742;SDS011;14341;51.256;22.478;2022-10-31T06:40:36;73.05;;;37.22;;
26742;SDS011;14341;51.256;22.478;2022-10-31T06:43:51;51.60;;;34.17;;
26742;SDS011;14341;51.256;22.478;2022-10-31T06:47:23;53.22;;;33.92;;
26742;SDS011;14341;51.256;22.478;2022-10-31T06:50:37;46.35;;;30.67;;
26742;SDS011;14341;51.256;22.478;2022-10-31T06:53:42;39.95;;;27.70;;
26742;SDS011;14341;51.256;22.478;2022-10-31T06:56:47;40.80;;;27.02;;
26742;SDS011;14341;51.256;22.478;2022-10-31T06:59:52;38.35;;;25.50;;
26742;SDS011;14341;51.256;22.478;2022-10-31T07:03:06;42.35;;;26.85;;
26742;SDS011;14341;51.256;22.478;2022-10-31T07:06:12;40.80;;;26.58;;
26742;SDS011;14341;51.256;22.478;2022-10-31T07:09:16;49.50;;;29.45;;
26742;SDS011;14341;51.256;22.478;2022-10-31T07:12:19;41.25;;;28.63;;
26742;SDS011;14341;51.256;22.478;2022-10-31T07:18:35;34.65;;;23.13;;
26742;SDS011;14341;51.256;22.478;2022-10-31T07:21:39;38.40;;;26.98;;
26742;SDS011;14341;51.256;22.478;2022-10-31T07:24:44;36.38;;;25.25;;
26742;SDS011;14341;51.256;22.478;2022-10-31T07:27:48;30.83;;;22.73;;
26742;SDS011;14341;51.256;22.478;2022-10-31T07:30:55;29.85;;;21.63;;
26742;SDS011;14341;51.256;22.478;2022-10-31T07:34:00;34.30;;;22.20;;
26742;SDS011;14341;51.256;22.478;2022-10-31T07:37:09;28.87;;;21.60;;
26742;SDS011;14341;51.256;22.478;2022-10-31T07:40:13;31.33;;;21.98;;
26742;SDS011;14341;51.256;22.478;2022-10-31T07:43:17;34.67;;;23.52;;
26742;SDS011;14341;51.256;22.478;2022-10-31T07:46:41;32.92;;;23.55;;
26742;SDS011;14341;51.256;22.478;2022-10-31T07:49:56;37.03;;;23.98;;
26742;SDS011;14341;51.256;22.478;2022-10-31T07:53:34;41.85;;;26.95;;
26742;SDS011;14341;51.256;22.478;2022-10-31T07:56:48;37.63;;;23.55;;
26742;SDS011;14341;51.256;22.478;2022-10-31T07:59:51;37.22;;;24.15;;
26742;SDS011;14341;51.256;22.478;2022-10-31T08:02:58;37.63;;;24.85;;
26742;SDS011;14341;51.256;22.478;2022-10-31T08:06:32;38.88;;;27.08;;
26742;SDS011;14341;51.256;22.478;2022-10-31T08:10:00;35.28;;;24.70;;
26742;SDS011;14341;51.256;22.478;2022-10-31T08:13:06;40.38;;;26.20;;
26742;SDS011;14341;51.256;22.478;2022-10-31T08:16:14;43.78;;;27.10;;
26742;SDS011;14341;51.256;22.478;2022-10-31T08:19:27;38.08;;;26.95;;
26742;SDS011;14341;51.256;22.478;2022-10-31T08:22:30;41.67;;;26.98;;
26742;SDS011;14341;51.256;22.478;2022-10-31T08:25:35;36.35;;;26.17;;
26742;SDS011;14341;51.256;22.478;2022-10-31T08:28:40;38.58;;;25.63;;
26742;SDS011;14341;51.256;22.478;2022-10-31T08:31:43;36.13;;;23.92;;
26742;SDS011;14341;51.256;22.478;2022-10-31T08:35:07;32.72;;;23.30;;
26742;SDS011;14341;51.256;22.478;2022-10-31T08:38:29;31.90;;;22.65;;
26742;SDS011;14341;51.256;22.478;2022-10-31T08:41:33;31.45;;;21.95;;
26742;SDS011;14341;51.256;22.478;2022-10-31T08:44:37;29.55;;;19.95;;
26742;SDS011;14341;51.256;22.478;2022-10-31T08:47:40;28.58;;;18.50;;
26742;SDS011;14341;51.256;22.478;2022-10-31T08:50:46;25.23;;;17.23;;
26742;SDS011;14341;51.256;22.478;2022-10-31T08:53:49;23.70;;;17.17;;
26742;SDS011;14341;51.256;22.478;2022-10-31T08:57:13;25.05;;;16.27;;
26742;SDS011;14341;51.256;22.478;2022-10-31T09:00:19;24.20;;;16.63;;
26742;SDS011;14341;51.256;22.478;2022-10-31T09:03:45;21.50;;;15.48;;
26742;SDS011;14341;51.256;22.478;2022-10-31T09:06:50;22.60;;;16.23;;
26742;SDS011;14341;51.256;22.478;2022-10-31T09:10:14;28.38;;;17.27;;
26742;SDS011;14341;51.256;22.478;2022-10-31T09:13:19;26.92;;;18.40;;
26742;SDS011;14341;51.256;22.478;2022-10-31T09:17:00;27.15;;;18.58;;
26742;SDS011;14341;51.256;22.478;2022-10-31T09:20:20;24.50;;;17.60;;
26742;SDS011;14341;51.256;22.478;2022-10-31T09:23:26;29.02;;;17.80;;
26742;SDS011;14341;51.256;22.478;2022-10-31T09:26:29;27.20;;;18.63;;
26742;SDS011;14341;51.256;22.478;2022-10-31T09:29:47;26.33;;;18.48;;
26742;SDS011;14341;51.256;22.478;2022-10-31T09:32:55;27.30;;;19.27;;
26742;SDS011;14341;51.256;22.478;2022-10-31T09:36:00;37.70;;;23.33;;
26742;SDS011;14341;51.256;22.478;2022-10-31T09:39:05;26.48;;;19.02;;
26742;SDS011;14341;51.256;22.478;2022-10-31T09:42:23;26.15;;;20.13;;
26742;SDS011;14341;51.256;22.478;2022-10-31T09:45:50;25.73;;;20.10;;
26742;SDS011;14341;51.256;22.478;2022-10-31T09:49:21;29.08;;;20.10;;
26742;SDS011;14341;51.256;22.478;2022-10-31T09:52:35;28.88;;;20.83;;
26742;SDS011;14341;51.256;22.478;2022-10-31T09:55:44;25.95;;;20.33;;
26742;SDS011;14341;51.256;22.478;2022-10-31T09:58:50;36.55;;;24.33;;
26742;SDS011;14341;51.256;22.478;2022-10-31T10:01:55;38.80;;;27.83;;
26742;SDS011;14341;51.256;22.478;2022-10-31T10:05:04;38.22;;;26.23;;
26742;SDS011;14341;51.256;22.478;2022-10-31T10:08:16;26.02;;;20.05;;
26742;SDS011;14341;51.256;22.478;2022-10-31T10:11:32;26.00;;;20.05;;
26742;SDS011;14341;51.256;22.478;2022-10-31T10:14:56;24.40;;;19.17;;
26742;SDS011;14341;51.256;22.478;2022-10-31T10:18:14;31.80;;;21.40;;
26742;SDS011;14341;51.256;22.478;2022-10-31T10:21:29;29.02;;;21.52;;
26742;SDS011;14341;51.256;22.478;2022-10-31T10:24:48;31.70;;;23.23;;
26742;SDS011;14341;51.256;22.478;2022-10-31T10:28:08;35.00;;;25.23;;
26742;SDS011;14341;51.256;22.478;2022-10-31T10:31:21;37.55;;;21.13;;
26742;SDS011;14341;51.256;22.478;2022-10-31T10:34:28;27.65;;;20.02;;
26742;SDS011;14341;51.256;22.478;2022-10-31T10:37:36;30.45;;;22.70;;
26742;SDS011;14341;51.256;22.478;2022-10-31T10:40:42;22.80;;;15.57;;
26742;SDS011;14341;51.256;22.478;2022-10-31T10:43:49;21.35;;;16.45;;
26742;SDS011;14341;51.256;22.478;2022-10-31T10:46:56;20.83;;;15.82;;
26742;SDS011;14341;51.256;22.478;2022-10-31T10:50:20;17.70;;;13.70;;
26742;SDS011;14341;51.256;22.478;2022-10-31T10:53:34;18.05;;;12.90;;
26742;SDS011;14341;51.256;22.478;2022-10-31T10:57:11;21.13;;;13.82;;
26742;SDS011;14341;51.256;22.478;2022-10-31T11:00:26;21.60;;;14.32;;
26742;SDS011;14341;51.256;22.478;2022-10-31T11:03:33;19.23;;;14.48;;
26742;SDS011;14341;51.256;22.478;2022-10-31T11:06:38;18.95;;;13.80;;
26742;SDS011;14341;51.256;22.478;2022-10-31T11:09:42;20.42;;;13.23;;
26742;SDS011;14341;51.256;22.478;2022-10-31T11:12:56;18.90;;;15.75;;
26742;SDS011;14341;51.256;22.478;2022-10-31T11:16:06;17.95;;;13.45;;
26742;SDS011;14341;51.256;22.478;2022-10-31T11:19:13;102.60;;;83.53;;
26742;SDS011;14341;51.256;22.478;2022-10-31T11:22:19;19.65;;;14.43;;
26742;SDS011;14341;51.256;22.478;2022-10-31T11:25:23;16.05;;;11.82;;
26742;SDS011;14341;51.256;22.478;2022-10-31T11:28:31;14.05;;;11.43;;
26742;SDS011;14341;51.256;22.478;2022-10-31T11:31:37;14.73;;;11.98;;
26742;SDS011;14341;51.256;22.478;2022-10-31T11:34:42;17.98;;;11.38;;
26742;SDS011;14341;51.256;22.478;2022-10-31T11:37:49;15.75;;;10.90;;
26742;SDS011;14341;51.256;22.478;2022-10-31T11:40:57;16.50;;;10.60;;
26742;SDS011;14341;51.256;22.478;2022-10-31T11:44:03;14.40;;;10.23;;
26742;SDS011;14341;51.256;22.478;2022-10-31T11:47:15;26.50;;;19.25;;
26742;SDS011;14341;51.256;22.478;2022-10-31T11:50:23;35.33;;;22.83;;
26742;SDS011;14341;51.256;22.478;2022-10-31T11:53:28;36.83;;;24.05;;
26742;SDS011;14341;51.256;22.478;2022-10-31T11:56:37;32.85;;;24.95;;
26742;SDS011;14341;51.256;22.478;2022-10-31T11:59:50;36.65;;;25.10;;
26742;SDS011;14341;51.256;22.478;2022-10-31T12:03:09;39.78;;;26.08;;
26742;SDS011;14341;51.256;22.478;2022-10-31T12:06:18;39.13;;;25.00;;
26742;SDS011;14341;51.256;22.478;2022-10-31T12:09:25;32.65;;;24.52;;
26742;SDS011;14341;51.256;22.478;2022-10-31T12:12:43;39.40;;;25.38;;
26742;SDS011;14341;51.256;22.478;2022-10-31T12:16:08;41.47;;;25.05;;
26742;SDS011;14341;51.256;22.478;2022-10-31T12:19:20;34.72;;;24.77;;
26742;SDS011;14341;51.256;22.478;2022-10-31T12:22:32;39.38;;;26.90;;
26742;SDS011;14341;51.256;22.478;2022-10-31T12:25:44;40.00;;;27.73;;
26742;SDS011;14341;51.256;22.478;2022-10-31T12:29:02;38.83;;;27.58;;
26742;SDS011;14341;51.256;22.478;2022-10-31T12:32:15;41.30;;;29.70;;
26742;SDS011;14341;51.256;22.478;2022-10-31T12:35:42;39.90;;;29.83;;
26742;SDS011;14341;51.256;22.478;2022-10-31T12:38:58;45.63;;;30.17;;
26742;SDS011;14341;51.256;22.478;2022-10-31T12:42:11;49.65;;;34.85;;
26742;SDS011;14341;51.256;22.478;2022-10-31T12:45:28;54.97;;;35.55;;
26742;SDS011;14341;51.256;22.478;2022-10-31T12:52:20;54.83;;;36.10;;
26742;SDS011;14341;51.256;22.478;2022-10-31T12:55:46;49.70;;;35.30;;
26742;SDS011;14341;51.256;22.478;2022-10-31T12:58:59;58.90;;;35.72;;
26742;SDS011;14341;51.256;22.478;2022-10-31T13:02:10;51.45;;;35.85;;
26742;SDS011;14341;51.256;22.478;2022-10-31T13:05:22;53.42;;;35.15;;
26742;SDS011;14341;51.256;22.478;2022-10-31T13:08:33;95.88;;;73.82;;
26742;SDS011;14341;51.256;22.478;2022-10-31T13:11:42;66.32;;;47.83;;
26742;SDS011;14341;51.256;22.478;2022-10-31T13:14:48;62.85;;;40.95;;
26742;SDS011;14341;51.256;22.478;2022-10-31T13:17:55;60.03;;;40.25;;
26742;SDS011;14341;51.256;22.478;2022-10-31T13:21:02;50.05;;;35.90;;
26742;SDS011;14341;51.256;22.478;2022-10-31T13:27:21;46.50;;;31.13;;
26742;SDS011;14341;51.256;22.478;2022-10-31T13:30:26;47.20;;;30.75;;
26742;SDS011;14341;51.256;22.478;2022-10-31T13:33:34;47.40;;;31.33;;
26742;SDS011;14341;51.256;22.478;2022-10-31T13:36:44;50.67;;;32.33;;
26742;SDS011;14341;51.256;22.478;2022-10-31T13:40:02;50.83;;;33.50;;
26742;SDS011;14341;51.256;22.478;2022-10-31T13:43:19;51.33;;;32.17;;
26742;SDS011;14341;51.256;22.478;2022-10-31T13:46:35;50.95;;;31.38;;
26742;SDS011;14341;51.256;22.478;2022-10-31T13:49:39;46.50;;;31.30;;
26742;SDS011;14341;51.256;22.478;2022-10-31T13:52:43;48.35;;;32.42;;
26742;SDS011;14341;51.256;22.478;2022-10-31T13:55:48;48.53;;;30.98;;
26742;SDS011;14341;51.256;22.478;2022-10-31T13:59:00;51.03;;;32.08;;
26742;SDS011;14341;51.256;22.478;2022-10-31T14:02:24;50.50;;;31.20;;
26742;SDS011;14341;51.256;22.478;2022-10-31T14:05:30;50.78;;;31.73;;
26742;SDS011;14341;51.256;22.478;2022-10-31T14:08:36;43.72;;;29.60;;
26742;SDS011;14341;51.256;22.478;2022-10-31T14:11:46;45.22;;;29.08;;
26742;SDS011;14341;51.256;22.478;2022-10-31T14:14:51;49.47;;;29.05;;
26742;SDS011;14341;51.256;22.478;2022-10-31T14:17:58;44.42;;;28.55;;
26742;SDS011;14341;51.256;22.478;2022-10-31T14:21:13;49.60;;;32.47;;
26742;SDS011;14341;51.256;22.478;2022-10-31T14:24:32;55.78;;;36.55;;
26742;SDS011;14341;51.256;22.478;2022-10-31T14:27:45;46.05;;;32.85;;
26742;SDS011;14341;51.256;22.478;2022-10-31T14:30:52;51.63;;;34.78;;
26742;SDS011;14341;51.256;22.478;2022-10-31T14:33:57;55.70;;;38.08;;
26742;SDS011;14341;51.256;22.478;2022-10-31T14:37:10;69.13;;;41.70;;
26742;SDS011;14341;51.256;22.478;2022-10-31T14:40:35;68.22;;;49.58;;
26742;SDS011;14341;51.256;22.478;2022-10-31T14:44:09;71.35;;;47.47;;
26742;SDS011;14341;51.256;22.478;2022-10-31T14:47:28;73.80;;;48.13;;
26742;SDS011;14341;51.256;22.478;2022-10-31T14:50:44;68.70;;;46.80;;
26742;SDS011;14341;51.256;22.478;2022-10-31T14:53:51;70.18;;;46.67;;
26742;SDS011;14341;51.256;22.478;2022-10-31T14:56:58;70.28;;;46.72;;
26742;SDS011;14341;51.256;22.478;2022-10-31T15:00:07;62.20;;;44.70;;
26742;SDS011;14341;51.256;22.478;2022-10-31T15:03:21;72.65;;;45.75;;
26742;SDS011;14341;51.256;22.478;2022-10-31T15:06:30;69.22;;;46.20;;
26742;SDS011;14341;51.256;22.478;2022-10-31T15:09:41;63.88;;;43.20;;
26742;SDS011;14341;51.256;22.478;2022-10-31T15:12:45;68.75;;;42.95;;
26742;SDS011;14341;51.256;22.478;2022-10-31T15:15:51;71.88;;;46.80;;
26742;SDS011;14341;51.256;22.478;2022-10-31T15:18:57;89.90;;;63.70;;
26742;SDS011;14341;51.256;22.478;2022-10-31T15:22:03;75.25;;;48.63;;
26742;SDS011;14341;51.256;22.478;2022-10-31T15:25:11;78.45;;;50.63;;
26742;SDS011;14341;51.256;22.478;2022-10-31T15:28:22;84.03;;;50.47;;
26742;SDS011;14341;51.256;22.478;2022-10-31T15:31:28;85.30;;;52.70;;
26742;SDS011;14341;51.256;22.478;2022-10-31T15:34:35;92.03;;;57.03;;
26742;SDS011;14341;51.256;22.478;2022-10-31T15:37:41;105.70;;;57.22;;
26742;SDS011;14341;51.256;22.478;2022-10-31T15:40:50;93.65;;;55.45;;
26742;SDS011;14341;51.256;22.478;2022-10-31T15:43:57;87.60;;;52.33;;
26742;SDS011;14341;51.256;22.478;2022-10-31T15:47:11;92.05;;;53.85;;
26742;SDS011;14341;51.256;22.478;2022-10-31T15:50:18;97.05;;;55.05;;
26742;SDS011;14341;51.256;22.478;2022-10-31T15:53:25;97.57;;;57.28;;
26742;SDS011;14341;51.256;22.478;2022-10-31T15:56:31;155.30;;;67.75;;
26742;SDS011;14341;51.256;22.478;2022-10-31T15:59:35;163.77;;;72.78;;
26742;SDS011;14341;51.256;22.478;2022-10-31T16:02:40;158.70;;;75.78;;
26742;SDS011;14341;51.256;22.478;2022-10-31T16:05:44;325.63;;;78.45;;
26742;SDS011;14341;51.256;22.478;2022-10-31T16:08:52;183.32;;;75.85;;
26742;SDS011;14341;51.256;22.478;2022-10-31T16:11:56;187.30;;;72.90;;
26742;SDS011;14341;51.256;22.478;2022-10-31T16:15:01;245.13;;;71.68;;
26742;SDS011;14341;51.256;22.478;2022-10-31T16:18:10;233.88;;;71.82;;
26742;SDS011;14341;51.256;22.478;2022-10-31T16:21:14;203.68;;;73.30;;
26742;SDS011;14341;51.256;22.478;2022-10-31T16:24:19;361.65;;;74.80;;
26742;SDS011;14341;51.256;22.478;2022-10-31T16:27:28;193.98;;;75.93;;
26742;SDS011;14341;51.256;22.478;2022-10-31T16:30:36;230.45;;;78.50;;
26742;SDS011;14341;51.256;22.478;2022-10-31T16:33:49;365.52;;;75.40;;
26742;SDS011;14341;51.256;22.478;2022-10-31T16:37:08;280.75;;;75.95;;
26742;SDS011;14341;51.256;22.478;2022-10-31T16:40:12;427.88;;;76.75;;
26742;SDS011;14341;51.256;22.478;2022-10-31T16:43:16;294.02;;;82.70;;
26742;SDS011;14341;51.256;22.478;2022-10-31T16:46:22;244.73;;;85.15;;
26742;SDS011;14341;51.256;22.478;2022-10-31T16:49:28;215.50;;;82.13;;
26742;SDS011;14341;51.256;22.478;2022-10-31T16:52:32;234.10;;;80.43;;
26742;SDS011;14341;51.256;22.478;2022-10-31T16:55:54;219.63;;;96.00;;
26742;SDS011;14341;51.256;22.478;2022-10-31T16:58:59;321.80;;;86.18;;
26742;SDS011;14341;51.256;22.478;2022-10-31T17:02:14;260.50;;;83.93;;
26742;SDS011;14341;51.256;22.478;2022-10-31T17:05:33;261.45;;;83.47;;
26742;SDS011;14341;51.256;22.478;2022-10-31T17:08:38;202.88;;;81.32;;
26742;SDS011;14341;51.256;22.478;2022-10-31T17:11:43;200.05;;;84.55;;
26742;SDS011;14341;51.256;22.478;2022-10-31T17:14:50;217.10;;;73.38;;
26742;SDS011;14341;51.256;22.478;2022-10-31T17:17:55;157.25;;;69.78;;
26742;SDS011;14341;51.256;22.478;2022-10-31T17:21:01;168.80;;;69.60;;
26742;SDS011;14341;51.256;22.478;2022-10-31T17:24:08;180.88;;;69.38;;
26742;SDS011;14341;51.256;22.478;2022-10-31T17:27:14;180.65;;;74.35;;
26742;SDS011;14341;51.256;22.478;2022-10-31T17:30:20;547.70;;;68.50;;
26742;SDS011;14341;51.256;22.478;2022-10-31T17:33:24;412.70;;;68.75;;
26742;SDS011;14341;51.256;22.478;2022-10-31T17:36:30;159.98;;;71.35;;
26742;SDS011;14341;51.256;22.478;2022-10-31T17:39:34;214.57;;;76.65;;
26742;SDS011;14341;51.256;22.478;2022-10-31T17:42:38;212.15;;;82.82;;
26742;SDS011;14341;51.256;22.478;2022-10-31T17:45:41;180.13;;;81.80;;
26742;SDS011;14341;51.256;22.478;2022-10-31T17:48:44;251.52;;;85.05;;
26742;SDS011;14341;51.256;22.478;2022-10-31T17:51:49;188.68;;;97.68;;
26742;SDS011;14341;51.256;22.478;2022-10-31T17:54:53;199.50;;;71.57;;
26742;SDS011;14341;51.256;22.478;2022-10-31T17:57:56;186.85;;;71.85;;
26742;SDS011;14341;51.256;22.478;2022-10-31T18:01:00;196.57;;;73.72;;
26742;SDS011;14341;51.256;22.478;2022-10-31T18:04:08;186.77;;;74.95;;
26742;SDS011;14341;51.256;22.478;2022-10-31T18:07:13;182.52;;;73.35;;
26742;SDS011;14341;51.256;22.478;2022-10-31T18:10:20;205.40;;;77.18;;
26742;SDS011;14341;51.256;22.478;2022-10-31T18:13:24;174.90;;;75.78;;
26742;SDS011;14341;51.256;22.478;2022-10-31T18:16:28;157.98;;;73.03;;
26742;SDS011;14341;51.256;22.478;2022-10-31T18:19:31;168.15;;;75.50;;
26742;SDS011;14341;51.256;22.478;2022-10-31T18:22:36;166.57;;;72.57;;
26742;SDS011;14341;51.256;22.478;2022-10-31T18:25:40;170.15;;;79.10;;